createdAt,value
2019-05-07T00:02:16.032Z,99261.76
2019-05-07T00:07:23.659Z,99263.58
2019-05-07T00:12:32.311Z,99273.92
2019-05-07T00:17:40.025Z,99274.43
2019-05-07T00:22:47.289Z,99272.03
2019-05-07T00:27:54.652Z,99272.28
2019-05-07T00:33:02.740Z,99269.66
2019-05-07T00:38:12.957Z,99280.80
2019-05-07T00:43:23.587Z,99272.91
2019-05-07T00:48:32.898Z,99265.12
2019-05-07T00:53:39.823Z,99262.42
2019-05-07T00:58:47.143Z,99261.57
2019-05-07T01:03:54.572Z,99264.19
2019-05-07T01:09:03.147Z,99257.78
2019-05-07T01:14:12.383Z,99258.78
2019-05-07T01:19:21.823Z,99252.81
2019-05-07T01:24:28.773Z,99253.31
2019-05-07T01:29:36.230Z,99255.11
2019-05-07T01:35:08.569Z,99255.56
2019-05-07T01:40:16.029Z,99255.73
2019-05-07T01:45:24.894Z,99252.33
2019-05-07T01:50:32.500Z,99253.55
2019-05-07T01:55:39.811Z,99252.50
2019-05-07T02:00:47.045Z,99249.34
2019-05-07T02:06:04.804Z,99249.08
2019-05-07T02:11:14.278Z,99242.25
2019-05-07T02:16:21.875Z,99239.57
2019-05-07T02:21:29.396Z,99248.13
2019-05-07T02:26:37.799Z,99253.36
2019-05-07T02:31:45.132Z,99251.26
2019-05-07T02:36:53.907Z,99249.37
2019-05-07T02:42:03.681Z,99245.06
2019-05-07T02:47:17.271Z,99240.44
2019-05-07T02:52:46.967Z,99234.72
2019-05-07T02:57:54.728Z,99228.45
2019-05-07T03:03:04.132Z,99235.63
2019-05-07T03:08:13.350Z,99236.19
2019-05-07T03:13:23.423Z,99235.94
2019-05-07T03:18:33.147Z,99235.89
2019-05-07T03:23:47.008Z,99226.22
2019-05-07T03:29:06.596Z,99222.84
2019-05-07T03:34:36.102Z,99229.13
2019-05-07T03:39:42.959Z,99230.19
2019-05-07T03:45:17.346Z,99231.78
2019-05-07T03:50:24.716Z,99231.70
2019-05-07T03:55:33.278Z,99233.11
2019-05-07T04:00:44.350Z,99233.51
2019-05-07T04:05:53.149Z,99232.94
2019-05-07T04:11:03.207Z,99237.56
2019-05-07T04:16:08.748Z,99246.36
2019-05-07T04:21:16.221Z,99244.86
2019-05-07T04:26:36.311Z,99244.19
2019-05-07T04:31:44.028Z,99249.03
2019-05-07T04:36:53.430Z,99244.97
2019-05-07T04:42:03.404Z,99246.38
2019-05-07T04:47:09.375Z,99245.91
2019-05-07T04:52:24.381Z,99252.27
2019-05-07T04:57:33.096Z,99248.36
2019-05-07T05:03:12.933Z,99255.27
2019-05-07T05:08:22.982Z,99253.97
2019-05-07T05:13:29.440Z,99264.02
2019-05-07T05:18:36.823Z,99264.27
2019-05-07T05:24:02.898Z,99261.42
2019-05-07T05:29:12.127Z,99263.48
2019-05-07T05:34:19.265Z,99260.34
2019-05-07T05:39:26.590Z,99260.04
2019-05-07T05:44:34.584Z,99270.17
2019-05-07T05:49:42.854Z,99270.77
2019-05-07T05:55:15.197Z,99272.39
2019-05-07T06:00:53.014Z,99272.38
2019-05-07T06:06:25.237Z,99273.30
2019-05-07T06:11:43.096Z,99275.59
2019-05-07T06:17:09.165Z,99274.48
2019-05-07T06:22:38.179Z,99277.34
2019-05-07T06:27:46.525Z,99272.00
2019-05-07T06:32:53.843Z,99275.31
2019-05-07T06:38:02.875Z,99274.34
2019-05-07T06:43:24.552Z,99271.26
2019-05-07T06:48:42.309Z,99275.31
2019-05-07T06:53:42.218Z,99273.73
2019-05-07T06:59:14.503Z,99278.98
2019-05-07T07:04:43.792Z,99280.69
2019-05-07T07:10:13.093Z,99284.63
2019-05-07T07:15:23.035Z,99284.61
2019-05-07T07:20:29.451Z,99284.11
2019-05-07T07:25:37.079Z,99284.70
2019-05-07T07:30:59.359Z,99276.91
2019-05-07T07:36:06.882Z,99282.20
2019-05-07T07:41:32.522Z,99292.34
2019-05-07T07:46:39.483Z,99283.75
2019-05-07T07:51:46.864Z,99283.00
2019-05-07T07:57:25.014Z,99281.38
2019-05-07T08:02:52.922Z,99280.91
2019-05-07T08:08:02.154Z,99280.46
2019-05-07T08:13:09.044Z,99282.48
2019-05-07T08:18:16.513Z,99284.45
2019-05-07T08:23:23.879Z,99278.97
2019-05-07T08:28:31.976Z,99278.16
2019-05-07T08:33:47.294Z,99279.76
2019-05-07T08:38:57.643Z,99280.06
2019-05-07T08:44:15.747Z,99269.27
2019-05-07T08:49:35.610Z,99269.66
2019-05-07T08:54:34.524Z,99257.77
2019-05-07T08:59:46.749Z,99255.91
2019-05-07T09:04:52.264Z,99254.95
2019-05-07T09:10:02.482Z,99244.83
2019-05-07T09:15:12.417Z,99255.50
2019-05-07T09:20:22.844Z,99278.49
2019-05-07T09:25:32.521Z,99278.72
2019-05-07T09:30:59.182Z,99285.11
2019-05-07T09:36:12.036Z,99279.19
2019-05-07T09:41:28.154Z,99266.92
2019-05-07T09:46:35.603Z,99278.05
2019-05-07T09:51:42.902Z,99283.41
2019-05-07T09:56:52.500Z,99282.63
2019-05-07T10:02:01.646Z,99281.59
2019-05-07T10:07:08.416Z,99277.75
2019-05-07T10:12:26.289Z,99277.66
2019-05-07T10:17:52.513Z,99255.88
2019-05-07T10:23:02.425Z,99248.75
2019-05-07T10:28:12.394Z,99273.25
2019-05-07T10:33:19.500Z,99284.89
2019-05-07T10:38:26.749Z,99284.20
2019-05-07T10:43:34.251Z,99280.62
2019-05-07T10:49:15.343Z,99260.73
2019-05-07T10:54:23.293Z,99261.92
2019-05-07T10:59:30.624Z,99267.83
2019-05-07T11:04:42.098Z,99273.36
2019-05-07T11:09:46.913Z,99262.19
2019-05-07T11:14:54.281Z,99258.75
2019-05-07T11:20:01.592Z,99255.52
2019-05-07T11:25:11.885Z,99251.14
2019-05-07T11:30:22.673Z,99264.02
2019-05-07T11:35:31.803Z,99262.14
2019-05-07T11:40:38.960Z,99259.20
2019-05-07T11:45:54.489Z,99259.06
2019-05-07T11:51:12.359Z,99255.64
2019-05-07T11:56:19.703Z,99248.52
2019-05-07T12:01:40.210Z,99245.91
2019-05-07T12:06:36.036Z,99253.34
2019-05-07T12:11:43.355Z,99249.72
2019-05-07T12:16:50.629Z,99240.15
2019-05-07T12:21:58.449Z,99221.81
2019-05-07T12:27:05.921Z,99227.03
2019-05-07T12:32:27.803Z,99227.86
2019-05-07T12:37:36.098Z,99223.95
2019-05-07T12:42:45.614Z,99221.80
2019-05-07T12:47:53.015Z,99218.56
2019-05-07T12:53:15.816Z,99217.16
2019-05-07T12:58:23.114Z,99198.08
2019-05-07T13:03:43.196Z,99183.77
2019-05-07T13:08:52.177Z,99183.89
2019-05-07T13:13:59.712Z,99181.69
2019-05-07T13:19:07.045Z,99184.25
2019-05-07T13:24:14.958Z,99180.66
2019-05-07T13:29:22.507Z,99187.94
2019-05-07T13:34:33.719Z,99190.70
2019-05-07T13:39:48.915Z,99175.40
2019-05-07T13:45:24.410Z,99175.77
2019-05-07T13:50:32.741Z,99164.86
2019-05-07T13:55:42.224Z,99159.46
2019-05-07T14:01:06.074Z,99150.19
2019-05-07T14:06:16.723Z,99150.19
2019-05-07T14:11:24.837Z,99143.27
2019-05-07T14:16:32.216Z,99136.95
2019-05-07T14:21:41.973Z,99140.86
2019-05-07T14:26:48.578Z,99144.05
2019-05-07T14:32:03.461Z,99137.67
2019-05-07T14:37:18.775Z,99130.38
2019-05-07T14:42:32.827Z,99131.21
2019-05-07T14:47:44.415Z,99131.95
2019-05-07T14:52:49.543Z,99130.55
2019-05-07T14:57:57.029Z,99120.74
2019-05-07T15:03:04.737Z,99116.79
2019-05-07T15:08:14.424Z,99115.55
2019-05-07T15:13:21.864Z,99107.03
2019-05-07T15:18:47.463Z,99108.45
2019-05-07T15:23:57.871Z,99104.41
2019-05-07T15:29:12.126Z,99103.95
2019-05-07T15:34:19.407Z,99102.90
2019-05-07T15:39:26.803Z,99103.66
2019-05-07T15:44:34.209Z,99102.11
2019-05-07T15:49:41.850Z,99094.47
2019-05-07T15:54:49.417Z,99102.13
2019-05-07T16:00:06.972Z,99099.77
2019-05-07T16:05:14.669Z,99100.89
2019-05-07T16:10:23.244Z,99096.11
2019-05-07T16:15:31.992Z,99094.25
2019-05-07T16:20:39.714Z,99097.91
2019-05-07T16:25:47.117Z,99094.58
2019-05-07T16:30:54.536Z,99093.19
2019-05-07T16:36:02.177Z,99088.63
2019-05-07T16:41:13.396Z,99093.04
2019-05-07T16:46:18.727Z,99089.59
2019-05-07T16:51:26.125Z,99086.61
2019-05-07T16:56:33.577Z,99091.88
2019-05-07T17:01:42.945Z,99089.66
2019-05-07T17:06:52.162Z,99090.19
2019-05-07T17:12:01.531Z,99096.50
2019-05-07T17:17:09.259Z,99095.16
2019-05-07T17:22:17.095Z,99094.62
2019-05-07T17:27:24.949Z,99096.27
2019-05-07T17:32:33.503Z,99105.12
2019-05-07T17:37:41.478Z,99109.34
2019-05-07T17:42:49.085Z,99103.09
2019-05-07T17:47:56.770Z,99109.00
2019-05-07T17:53:04.472Z,99104.16
2019-05-07T17:58:12.888Z,99105.02
2019-05-07T18:03:34.210Z,99105.52
2019-05-07T18:08:42.132Z,99104.59
2019-05-07T18:13:51.748Z,99105.12
2019-05-07T18:19:02.095Z,99104.61
2019-05-07T18:24:13.627Z,99097.68
2019-05-07T18:29:18.950Z,99106.05
2019-05-07T18:34:26.349Z,99105.73
2019-05-07T18:39:33.756Z,99107.45
2019-05-07T18:44:41.720Z,99108.45
2019-05-07T18:49:49.381Z,99109.49
2019-05-07T18:54:56.754Z,99106.70
2019-05-07T19:00:05.346Z,99105.45
2019-05-07T19:05:13.172Z,99106.47
2019-05-07T19:10:22.022Z,99109.64
2019-05-07T19:15:29.673Z,99109.93
2019-05-07T19:20:37.043Z,99105.73
2019-05-07T19:25:45.534Z,99106.29
2019-05-07T19:30:53.156Z,99106.84
2019-05-07T19:36:00.744Z,99106.05
2019-05-07T19:41:08.259Z,99110.48
2019-05-07T19:46:15.553Z,99104.09
2019-05-07T19:51:22.987Z,99103.06
2019-05-07T19:56:32.344Z,99106.93
2019-05-07T20:01:44.436Z,99103.03
2019-05-07T20:06:52.293Z,99099.27
2019-05-07T20:11:59.895Z,99094.06
2019-05-07T20:17:07.382Z,99096.41
2019-05-07T20:22:14.740Z,99093.13
2019-05-07T20:27:23.252Z,99088.39
2019-05-07T20:32:32.840Z,99082.39
2019-05-07T20:37:41.803Z,99073.88
2019-05-07T20:42:48.782Z,99079.25
2019-05-07T20:47:56.126Z,99077.17
2019-05-07T20:53:03.448Z,99074.23
2019-05-07T20:58:12.828Z,99074.60
2019-05-07T21:03:23.960Z,99071.49
2019-05-07T21:08:32.130Z,99071.30
2019-05-07T21:13:42.073Z,99066.45
2019-05-07T21:18:48.731Z,99066.38
2019-05-07T21:23:56.200Z,99066.06
2019-05-07T21:29:03.553Z,99065.48
2019-05-07T21:34:12.375Z,99062.84
2019-05-07T21:39:22.200Z,99061.73
2019-05-07T21:44:29.156Z,99055.23
2019-05-07T21:49:36.475Z,99051.45
2019-05-07T21:55:12.745Z,99048.90
2019-05-07T22:00:41.840Z,99046.98
2019-05-07T22:05:51.729Z,99050.23
2019-05-07T22:10:59.172Z,99044.59
2019-05-07T22:16:07.661Z,99038.52
2019-05-07T22:21:14.981Z,99035.75
2019-05-07T22:26:26.228Z,99033.40
2019-05-07T22:31:48.951Z,99035.75
2019-05-07T22:36:56.310Z,99024.82
2019-05-07T22:42:14.288Z,99028.53
2019-05-07T22:47:22.573Z,99018.18
2019-05-07T22:52:32.128Z,99015.37
2019-05-07T22:58:07.138Z,99017.08
2019-05-07T23:03:14.842Z,99009.55
2019-05-07T23:08:22.311Z,99002.02
2019-05-07T23:13:31.754Z,99005.94
2019-05-07T23:18:38.514Z,98993.88
2019-05-07T23:23:45.804Z,98992.70
2019-05-07T23:28:53.142Z,98988.19
2019-05-07T23:34:01.869Z,98981.13
2019-05-07T23:39:11.977Z,98961.55
2019-05-07T23:44:22.731Z,98953.06
2019-05-07T23:49:29.707Z,98945.08
2019-05-07T23:54:36.928Z,98936.08
2019-05-07T23:59:44.327Z,98935.79
